createdAt,value
2022-12-11T00:04:30.729Z,91984.91
2022-12-11T00:09:34.193Z,92287.81
2022-12-11T00:14:37.853Z,92451.69
2022-12-11T00:19:42.977Z,92630.13
2022-12-11T00:24:46.452Z,92690.28
2022-12-11T00:29:49.973Z,92839.69
2022-12-11T00:34:54.866Z,92951.72
2022-12-11T00:39:58.378Z,93146.78
2022-12-11T00:45:01.850Z,93126.03
2022-12-11T00:50:08.142Z,92995.31
2022-12-11T00:55:12.620Z,93217.31
2022-12-11T01:00:16.689Z,93254.69
2022-12-11T01:05:21.637Z,93439.38
2022-12-11T01:10:25.409Z,93333.53
2022-12-11T01:15:32.243Z,93287.88
2022-12-11T01:20:39.668Z,93443.50
2022-12-11T01:25:43.724Z,93223.56
2022-12-11T01:30:47.321Z,93433.13
2022-12-11T01:35:52.170Z,93603.31
2022-12-11T01:40:55.656Z,93584.63
2022-12-11T01:45:59.221Z,93536.91
2022-12-11T01:51:06.783Z,93748.59
2022-12-11T01:56:11.650Z,93914.63
2022-12-11T02:01:21.730Z,93895.94
2022-12-11T02:06:35.731Z,94030.84
2022-12-11T02:11:48.699Z,93889.72
2022-12-11T02:16:57.247Z,94124.25
2022-12-11T02:22:08.269Z,94037.06
2022-12-11T02:27:30.024Z,94194.81
2022-12-11T02:32:39.613Z,94387.84
2022-12-11T02:37:46.150Z,94487.47
2022-12-11T02:42:50.880Z,94622.41
2022-12-11T02:47:57.850Z,94562.19
2022-12-11T02:53:05.150Z,94643.16
2022-12-11T02:58:14.436Z,94738.66
2022-12-11T03:03:19.411Z,94707.50
2022-12-11T03:08:22.981Z,94568.44
2022-12-11T03:13:26.521Z,94792.63
2022-12-11T03:18:37.588Z,94931.69
2022-12-11T03:23:48.875Z,94894.34
2022-12-11T03:28:57.530Z,95184.97
2022-12-11T03:34:05.516Z,95232.72
2022-12-11T03:39:12.729Z,95158.00
2022-12-11T03:44:18.187Z,95214.03
2022-12-11T03:49:27.886Z,95317.84
2022-12-11T03:54:32.280Z,95284.63
2022-12-11T03:59:35.737Z,95388.44
2022-12-11T04:04:42.413Z,95276.31
2022-12-11T04:09:46.125Z,95255.56
2022-12-11T04:15:04.719Z,95149.69
2022-12-11T04:20:30.080Z,95178.75
2022-12-11T04:25:33.636Z,95178.75
2022-12-11T04:30:37.147Z,95392.59
2022-12-11T04:35:41.989Z,95317.84
2022-12-11T04:40:45.440Z,95126.84
2022-12-11T04:45:48.939Z,95375.97
2022-12-11T04:50:53.793Z,95301.25
2022-12-11T04:55:57.708Z,95214.03
2022-12-11T05:01:01.176Z,94919.25
2022-12-11T05:06:06.570Z,94871.50
2022-12-11T05:11:12.716Z,94497.84
2022-12-11T05:16:18.002Z,94636.94
2022-12-11T05:21:22.913Z,94597.50
2022-12-11T05:26:26.552Z,94375.38
2022-12-11T05:31:30.081Z,94201.03
2022-12-11T05:36:35.373Z,94362.94
2022-12-11T05:41:38.891Z,94190.66
2022-12-11T05:46:42.386Z,94255.00
2022-12-11T05:51:47.558Z,93939.53
2022-12-11T05:56:51.985Z,93707.06
2022-12-11T06:01:55.651Z,93624.06
2022-12-11T06:07:00.687Z,93663.50
2022-12-11T06:12:04.246Z,93370.88
2022-12-11T06:17:08.011Z,93352.22
2022-12-11T06:22:12.811Z,93345.97
2022-12-11T06:27:16.439Z,92916.44
2022-12-11T06:32:20.079Z,92661.25
2022-12-11T06:37:25.201Z,92507.72
2022-12-11T06:42:30.869Z,92242.16
2022-12-11T06:47:34.479Z,92047.16
2022-12-11T06:52:39.304Z,91673.75
2022-12-11T06:57:43.090Z,91580.44
2022-12-11T07:02:46.626Z,91422.78
2022-12-11T07:07:53.969Z,91229.91
2022-12-11T07:12:57.489Z,90902.22
2022-12-11T07:18:01.240Z,90779.84
2022-12-11T07:23:06.196Z,90445.97
2022-12-11T07:28:13.655Z,90468.78
2022-12-11T07:33:20.275Z,90273.88
2022-12-11T07:38:25.090Z,89890.28
2022-12-11T07:43:28.680Z,89604.16
2022-12-11T07:48:32.173Z,89326.34
2022-12-11T07:53:37.157Z,89104.53
2022-12-11T07:58:40.658Z,88913.84
2022-12-11T08:03:44.705Z,88704.47
2022-12-11T08:08:49.777Z,88443.31
2022-12-11T08:13:53.701Z,88211.19
2022-12-11T08:18:57.171Z,87883.75
2022-12-11T08:24:02.218Z,87813.28
2022-12-11T08:29:06.063Z,87736.63
2022-12-11T08:34:14.003Z,87562.56
2022-12-11T08:39:19.726Z,87015.53
2022-12-11T08:44:25.330Z,87056.97
2022-12-11T08:49:34.233Z,86967.88
2022-12-11T08:54:39.844Z,87224.81
2022-12-11T08:59:43.703Z,87206.16
2022-12-11T09:04:47.699Z,87170.94
2022-12-11T09:09:52.756Z,87330.47
2022-12-11T09:14:56.439Z,87597.78
2022-12-11T09:20:00.387Z,87577.06
2022-12-11T09:25:06.869Z,87583.28
2022-12-11T09:30:11.277Z,87577.06
2022-12-11T09:35:17.278Z,87334.63
2022-12-11T09:40:22.269Z,87334.63
2022-12-11T09:45:25.966Z,86988.59
2022-12-11T09:50:33.504Z,86988.59
2022-12-11T09:55:44.234Z,86831.16
2022-12-11T10:00:51.465Z,86501.75
2022-12-11T10:06:04.942Z,86501.75
2022-12-11T10:11:28.326Z,86501.75
2022-12-11T10:16:39.518Z,86501.75
2022-12-11T10:21:46.175Z,86470.66
2022-12-11T10:26:55.766Z,86338.09
2022-12-11T10:31:59.940Z,86338.09
2022-12-11T10:37:03.972Z,86338.09
2022-12-11T10:42:18.659Z,86338.09
2022-12-11T10:47:22.164Z,86338.09
2022-12-11T10:52:28.562Z,86338.09
2022-12-11T10:57:37.212Z,86338.09
2022-12-11T11:02:42.585Z,86338.09
2022-12-11T11:07:46.377Z,86338.09
2022-12-11T11:13:01.268Z,86338.09
2022-12-11T11:18:12.979Z,86338.09
2022-12-11T11:23:19.962Z,86338.09
2022-12-11T11:28:28.309Z,86338.09
2022-12-11T11:33:34.256Z,86338.09
2022-12-11T11:38:42.959Z,86338.09
2022-12-11T11:43:52.031Z,86338.09
2022-12-11T11:49:06.437Z,86338.09
2022-12-11T11:54:21.885Z,86338.09
2022-12-11T11:59:32.379Z,86338.09
2022-12-11T12:04:36.920Z,86338.09
2022-12-11T12:09:48.812Z,86338.09
2022-12-11T12:15:09.673Z,86338.09
2022-12-11T12:20:22.144Z,86338.09
2022-12-11T12:25:33.093Z,86338.09
2022-12-11T12:30:43.431Z,86338.09
2022-12-11T12:36:02.075Z,86338.09
2022-12-11T12:41:19.876Z,86338.09
2022-12-11T12:46:36.475Z,86338.09
2022-12-11T12:51:41.195Z,86338.09
2022-12-11T12:56:47.354Z,86338.09
2022-12-11T13:01:57.190Z,86338.09
2022-12-11T13:07:13.087Z,86338.09
2022-12-11T13:12:17.512Z,86338.09
2022-12-11T13:17:36.817Z,86338.09
2022-12-11T13:22:55.215Z,86338.09
2022-12-11T13:28:09.557Z,86338.09
2022-12-11T13:33:19.926Z,86338.09
2022-12-11T13:38:23.934Z,86338.09
2022-12-11T13:43:31.198Z,86338.09
2022-12-11T13:48:39.920Z,86338.09
2022-12-11T13:53:43.836Z,86338.09
2022-12-11T13:58:48.279Z,86338.09
2022-12-11T14:03:56.638Z,86338.09
2022-12-11T14:09:02.577Z,86338.09
2022-12-11T14:14:08.505Z,86338.09
2022-12-11T14:19:19.471Z,86338.09
2022-12-11T14:24:23.276Z,86338.09
2022-12-11T14:29:30.359Z,86338.09
2022-12-11T14:34:38.225Z,86338.09
2022-12-11T14:39:47.345Z,86338.09
2022-12-11T14:44:54.986Z,86338.09
2022-12-11T14:50:06.215Z,86338.09
2022-12-11T14:55:16.132Z,86338.09
2022-12-11T15:00:24.328Z,86338.09
2022-12-11T15:05:29.854Z,86338.09
2022-12-11T15:10:37.711Z,86338.09
2022-12-11T15:15:47.487Z,86338.09
2022-12-11T15:20:55.080Z,86338.09
2022-12-11T15:26:01.105Z,86338.09
2022-12-11T15:31:07.290Z,86338.09
2022-12-11T15:36:26.801Z,86338.09
2022-12-11T15:41:33.666Z,86338.09
2022-12-11T15:46:37.967Z,86338.09
2022-12-11T15:51:43.615Z,86338.09
2022-12-11T15:56:47.316Z,86338.09
2022-12-11T16:01:51.061Z,86338.09
2022-12-11T16:06:56.171Z,86338.09
2022-12-11T16:12:00.137Z,86338.09
2022-12-11T16:17:04.199Z,86338.09
2022-12-11T16:22:10.042Z,86338.09
2022-12-11T16:27:18.609Z,86338.09
2022-12-11T16:32:25.289Z,86338.09
2022-12-11T16:37:30.313Z,86338.09
2022-12-11T16:42:38.842Z,86338.09
2022-12-11T16:47:42.948Z,86338.09
2022-12-11T16:52:47.926Z,86338.09
2022-12-11T16:57:51.490Z,86338.09
2022-12-11T17:02:55.516Z,86338.09
2022-12-11T17:08:02.103Z,86338.09
2022-12-11T17:13:06.020Z,86338.09
2022-12-11T17:18:09.698Z,86338.09
2022-12-11T17:23:14.812Z,86338.09
2022-12-11T17:28:18.455Z,86338.09
2022-12-11T17:33:22.397Z,86338.09
2022-12-11T17:38:27.516Z,86338.09
2022-12-11T17:43:34.681Z,86338.09
2022-12-11T17:48:38.660Z,86338.09
2022-12-11T17:53:43.709Z,86338.09
2022-12-11T17:58:47.506Z,86338.09
2022-12-11T18:03:51.278Z,86338.09
2022-12-11T18:08:56.410Z,86338.09
2022-12-11T18:14:00.411Z,86338.09
2022-12-11T18:19:04.011Z,86338.09
2022-12-11T18:24:10.901Z,86338.09
2022-12-11T18:29:14.964Z,86338.09
2022-12-11T18:34:18.772Z,86338.09
2022-12-11T18:39:24.611Z,86338.09
2022-12-11T18:44:28.311Z,86338.09
2022-12-11T18:49:32.423Z,86338.09
2022-12-11T18:54:37.952Z,86338.09
2022-12-11T18:59:41.557Z,86338.09
2022-12-11T19:04:45.266Z,86338.09
2022-12-11T19:09:50.282Z,86338.09
2022-12-11T19:14:54.597Z,86338.09
2022-12-11T19:19:58.403Z,86338.09
2022-12-11T19:25:03.775Z,86338.09
2022-12-11T19:30:08.884Z,86338.09
2022-12-11T19:35:14.239Z,86338.09
2022-12-11T19:40:21.650Z,86338.09
2022-12-11T19:45:25.506Z,86338.09
2022-12-11T19:50:29.606Z,86338.09
2022-12-11T19:55:34.627Z,86338.09
2022-12-11T20:00:38.948Z,86338.09
2022-12-11T20:05:42.755Z,86338.09
2022-12-11T20:10:48.173Z,86338.09
2022-12-11T20:15:52.250Z,86338.09
2022-12-11T20:20:56.136Z,86338.09
2022-12-11T20:26:06.895Z,86338.09
2022-12-11T20:31:18.096Z,86338.09
2022-12-11T20:36:24.355Z,86338.09
2022-12-11T20:41:29.707Z,86338.09
2022-12-11T20:46:33.458Z,86338.09
2022-12-11T20:51:37.246Z,86338.09
2022-12-11T20:56:42.246Z,86338.09
2022-12-11T21:01:46.084Z,86338.09
2022-12-11T21:06:55.495Z,86338.09
2022-12-11T21:12:01.685Z,86338.09
2022-12-11T21:17:05.312Z,86338.09
2022-12-11T21:22:10.930Z,86338.09
2022-12-11T21:27:15.932Z,86338.09
2022-12-11T21:32:20.536Z,86338.09
2022-12-11T21:37:24.515Z,86338.09
2022-12-11T21:42:29.633Z,86338.09
2022-12-11T21:47:33.224Z,86338.09
2022-12-11T21:52:38.483Z,86338.09
2022-12-11T21:57:43.904Z,86338.09
2022-12-11T22:02:47.792Z,86338.09
2022-12-11T22:07:51.721Z,86337.69
2022-12-11T22:12:56.938Z,86338.09
2022-12-11T22:18:00.601Z,86338.09
2022-12-11T22:23:04.069Z,86338.09
2022-12-11T22:28:09.295Z,86337.69
2022-12-11T22:33:13.167Z,86337.69
2022-12-11T22:38:16.646Z,86338.09
2022-12-11T22:43:21.748Z,86337.69
2022-12-11T22:48:27.425Z,86338.09
2022-12-11T22:53:30.884Z,86337.69
2022-12-11T22:58:36.037Z,86337.69
2022-12-11T23:03:39.736Z,86338.09
2022-12-11T23:08:43.940Z,86338.09
2022-12-11T23:13:48.943Z,86337.69
2022-12-11T23:18:52.559Z,86337.69
2022-12-11T23:23:56.270Z,86337.69
2022-12-11T23:29:01.390Z,86337.69
2022-12-11T23:34:07.926Z,86337.69
2022-12-11T23:39:11.748Z,86337.69
2022-12-11T23:44:16.680Z,86337.69
2022-12-11T23:49:20.176Z,86337.69
2022-12-11T23:54:23.684Z,86337.69
2022-12-11T23:59:28.491Z,86337.69
